Aaronsburg, Pennsylvania
Current Conditions -  °F | °C
As of 2:53 PM on Monday 26 Jan 2015 (Local Time) from KUNV Reporting Station
Light Snow Light Snow  
Wind Chill: -11°   Ceiling: 900
Heat Index: -6°   Visibility: 1.5mi
Dew Point: -8°   Wind: 8mph
Humidity: 86%   Direction: 40°NE
Pressure: 29.75"   Gusts: NA
Location:  40.9°N, 77.45°W
Report Text: KUNV 261953Z 04007KT 1 1/2SM -SN BR BKN009 OVC026 M06/M08 A2975
Loading
Personal Weather Stations






























Interactive Weather Map New forecast layout! Learn more

10-Day Weather Forecast

Advertisements
Track Severe Weather on mobile